createdAt,value
2022-08-08T00:01:08.650Z,96.70
2022-08-08T00:03:50.248Z,96.70
2022-08-08T00:06:35.077Z,96.70
2022-08-08T00:09:11.998Z,96.70
2022-08-08T00:12:03.324Z,96.70
2022-08-08T00:14:48.209Z,96.70
2022-08-08T00:17:58.594Z,96.70
2022-08-08T00:20:33.556Z,96.70
2022-08-08T00:23:08.579Z,96.70
2022-08-08T00:25:46.650Z,96.70
2022-08-08T00:28:35.530Z,96.70
2022-08-08T00:32:28.647Z,96.70
2022-08-08T00:34:46.548Z,96.70
2022-08-08T00:37:47.743Z,96.70
2022-08-08T00:41:06.742Z,96.70
2022-08-08T00:44:20.387Z,96.70
2022-08-08T00:47:23.462Z,96.70
2022-08-08T00:50:29.897Z,96.70
2022-08-08T00:53:15.835Z,96.70
2022-08-08T00:56:30.426Z,96.70
2022-08-08T01:00:06.354Z,96.70
2022-08-08T01:03:54.034Z,96.70
2022-08-08T01:06:30.982Z,96.70
2022-08-08T01:09:35.100Z,96.70
2022-08-08T01:12:42.506Z,96.70
2022-08-08T01:15:54.332Z,96.70
2022-08-08T01:19:02.582Z,96.70
2022-08-08T01:22:12.380Z,96.70
2022-08-08T01:25:19.275Z,96.70
2022-08-08T01:28:18.195Z,96.70
2022-08-08T01:32:14.632Z,96.70
2022-08-08T01:34:55.966Z,96.70
2022-08-08T01:38:01.976Z,96.70
2022-08-08T01:40:49.387Z,96.70
2022-08-08T01:43:38.586Z,96.70
2022-08-08T01:46:31.437Z,96.70
2022-08-08T01:49:10.990Z,96.70
2022-08-08T01:52:32.567Z,96.70
2022-08-08T01:55:26.174Z,96.70
2022-08-08T01:58:38.483Z,96.70
2022-08-08T02:01:23.485Z,96.70
2022-08-08T02:04:13.963Z,96.70
2022-08-08T02:06:59.769Z,96.70
2022-08-08T02:10:04.164Z,96.70
2022-08-08T02:12:37.938Z,96.70
2022-08-08T02:15:13.406Z,96.70
2022-08-08T02:17:57.057Z,96.70
2022-08-08T02:21:02.199Z,96.70
2022-08-08T02:23:31.532Z,96.70
2022-08-08T02:26:10.196Z,96.70
2022-08-08T02:29:07.876Z,96.70
2022-08-08T02:32:22.504Z,96.70
2022-08-08T02:36:04.477Z,96.70
2022-08-08T02:38:48.957Z,96.70
2022-08-08T02:42:03.726Z,96.70
2022-08-08T02:45:18.679Z,96.70
2022-08-08T02:48:31.637Z,96.70
2022-08-08T02:51:46.416Z,96.70
2022-08-08T02:55:05.786Z,96.70
2022-08-08T02:58:26.875Z,96.70
2022-08-08T03:01:32.786Z,96.70
2022-08-08T03:05:04.610Z,96.70
2022-08-08T03:08:33.316Z,96.70
2022-08-08T03:12:01.694Z,96.70
2022-08-08T03:15:59.348Z,96.70
2022-08-08T03:17:59.624Z,96.70
2022-08-08T03:20:52.269Z,96.70
2022-08-08T03:23:56.243Z,96.70
2022-08-08T03:26:30.754Z,96.70
2022-08-08T03:29:17.151Z,96.70
2022-08-08T03:32:09.218Z,96.70
2022-08-08T03:34:41.130Z,96.70
2022-08-08T03:37:59.562Z,96.70
2022-08-08T03:40:10.739Z,96.70
2022-08-08T03:42:48.442Z,96.70
2022-08-08T03:46:03.143Z,96.70
2022-08-08T03:48:21.191Z,96.70
2022-08-08T03:51:07.596Z,96.70
2022-08-08T03:53:42.526Z,96.70
2022-08-08T03:56:32.166Z,96.70
2022-08-08T03:59:04.525Z,96.70
2022-08-08T04:02:13.140Z,96.70
2022-08-08T04:04:31.192Z,96.70
2022-08-08T04:07:01.859Z,96.70
2022-08-08T04:10:00.322Z,96.70
2022-08-08T04:12:26.445Z,96.70
2022-08-08T04:14:55.776Z,96.70
2022-08-08T04:17:46.627Z,96.70
2022-08-08T04:20:13.276Z,96.70
2022-08-08T04:22:43.506Z,96.70
2022-08-08T04:25:15.515Z,96.70
2022-08-08T04:28:10.680Z,96.70
2022-08-08T04:30:44.586Z,96.70
2022-08-08T04:33:15.744Z,96.70
2022-08-08T04:35:51.358Z,96.70
2022-08-08T04:38:22.596Z,96.70
2022-08-08T04:40:54.999Z,96.70
2022-08-08T04:43:45.404Z,96.70
2022-08-08T04:46:20.348Z,96.70
2022-08-08T04:48:52.029Z,96.70
2022-08-08T04:51:23.561Z,96.70
2022-08-08T04:54:39.462Z,96.70
2022-08-08T04:56:59.719Z,96.70
2022-08-08T04:59:30.037Z,96.70
2022-08-08T05:02:00.911Z,96.70
2022-08-08T05:04:30.531Z,96.70
2022-08-08T05:06:59.050Z,96.70
2022-08-08T05:09:27.419Z,96.70
2022-08-08T05:11:58.551Z,96.70
2022-08-08T05:14:33.710Z,96.70
2022-08-08T05:17:09.049Z,96.70
2022-08-08T05:20:09.081Z,96.70
2022-08-08T05:22:36.265Z,96.70
2022-08-08T05:25:05.763Z,96.70
2022-08-08T05:27:41.281Z,96.70
2022-08-08T05:30:16.530Z,96.70
2022-08-08T05:32:58.121Z,96.70
2022-08-08T05:35:35.007Z,96.70
2022-08-08T05:38:30.719Z,96.70
2022-08-08T05:41:09.871Z,96.70
2022-08-08T05:44:03.783Z,96.70
2022-08-08T05:46:34.432Z,96.70
2022-08-08T05:49:10.389Z,96.70
2022-08-08T05:51:49.071Z,96.70
2022-08-08T05:54:27.147Z,96.70
2022-08-08T05:57:20.864Z,96.70
2022-08-08T06:00:25.316Z,96.70
2022-08-08T06:03:17.260Z,96.70
2022-08-08T06:05:59.264Z,96.70
2022-08-08T06:08:34.819Z,96.70
2022-08-08T06:11:13.369Z,96.70
2022-08-08T06:13:49.360Z,96.70
2022-08-08T06:16:27.632Z,96.70
2022-08-08T06:19:16.208Z,96.70
2022-08-08T06:21:56.884Z,96.70
2022-08-08T06:24:47.116Z,96.70
2022-08-08T06:27:27.144Z,96.70
2022-08-08T06:30:02.178Z,96.70
2022-08-08T06:32:47.757Z,96.70
2022-08-08T06:36:04.751Z,96.70
2022-08-08T06:38:16.921Z,96.70
2022-08-08T06:40:54.199Z,96.70
2022-08-08T06:43:34.252Z,96.70
2022-08-08T06:46:23.883Z,96.70
2022-08-08T06:48:56.550Z,96.70
2022-08-08T06:51:45.826Z,96.70
2022-08-08T06:54:17.615Z,96.70
2022-08-08T06:56:51.268Z,96.70
2022-08-08T06:59:21.713Z,96.70
2022-08-08T07:02:26.769Z,96.70
2022-08-08T07:04:56.559Z,96.70
2022-08-08T07:07:42.124Z,96.70
2022-08-08T07:10:13.052Z,96.70
2022-08-08T07:12:47.329Z,96.70
2022-08-08T07:16:05.377Z,96.70
2022-08-08T07:18:40.519Z,96.70
2022-08-08T07:21:19.151Z,96.70
2022-08-08T07:24:04.471Z,96.70
2022-08-08T07:26:50.812Z,96.70
2022-08-08T07:30:01.810Z,96.70
2022-08-08T07:32:15.749Z,96.70
2022-08-08T07:35:00.430Z,96.70
2022-08-08T07:37:56.743Z,96.70
2022-08-08T07:40:35.204Z,96.70
2022-08-08T07:43:10.134Z,96.70
2022-08-08T07:46:05.187Z,96.70
2022-08-08T07:48:36.786Z,96.70
2022-08-08T07:51:08.156Z,96.70
2022-08-08T07:54:06.782Z,96.70
2022-08-08T07:56:50.201Z,96.70
2022-08-08T07:59:22.991Z,96.70
2022-08-08T08:02:33.230Z,96.70
2022-08-08T08:04:53.620Z,96.70
2022-08-08T08:07:31.769Z,96.70
2022-08-08T08:10:05.358Z,96.70
2022-08-08T08:12:43.216Z,96.70
2022-08-08T08:15:23.237Z,96.70
2022-08-08T08:18:00.131Z,96.70
2022-08-08T08:20:31.120Z,96.70
2022-08-08T08:23:03.633Z,96.70
2022-08-08T08:25:42.091Z,96.70
2022-08-08T08:28:21.153Z,96.70
2022-08-08T08:30:55.511Z,96.70
2022-08-08T08:33:27.270Z,96.70
2022-08-08T08:36:20.026Z,96.70
2022-08-08T08:38:49.626Z,96.70
2022-08-08T08:41:25.874Z,96.70
2022-08-08T08:44:13.784Z,96.70
2022-08-08T08:46:50.210Z,96.70
2022-08-08T08:49:33.595Z,96.70
2022-08-08T08:52:06.243Z,96.70
2022-08-08T08:54:38.498Z,96.70
2022-08-08T08:57:17.426Z,96.70
2022-08-08T09:00:05.686Z,96.70
2022-08-08T09:02:42.676Z,96.70
2022-08-08T09:05:29.004Z,96.70
2022-08-08T09:08:12.465Z,96.70
2022-08-08T09:10:49.254Z,96.70
2022-08-08T09:13:25.307Z,96.70
2022-08-08T09:16:04.008Z,96.70
2022-08-08T09:18:36.575Z,96.70
2022-08-08T09:21:56.298Z,96.70
2022-08-08T09:23:57.235Z,96.70
2022-08-08T09:26:49.669Z,96.70
2022-08-08T09:29:24.840Z,96.70
2022-08-08T09:32:05.733Z,96.70
2022-08-08T09:34:56.035Z,96.70
2022-08-08T09:38:00.973Z,96.70
2022-08-08T09:40:42.744Z,96.70
2022-08-08T09:43:24.044Z,96.70
2022-08-08T09:46:03.476Z,96.70
2022-08-08T09:48:42.352Z,96.70
2022-08-08T09:51:15.450Z,96.70
2022-08-08T09:54:06.910Z,96.70
2022-08-08T09:56:48.352Z,96.70
2022-08-08T10:02:33.400Z,96.70
2022-08-08T10:05:14.281Z,96.70
2022-08-08T10:08:00.416Z,96.70
2022-08-08T10:10:32.582Z,96.70
2022-08-08T10:13:13.941Z,96.70
2022-08-08T10:16:01.161Z,96.70
2022-08-08T10:18:33.044Z,96.70
2022-08-08T10:21:25.145Z,96.70
2022-08-08T10:24:03.594Z,96.70
2022-08-08T10:26:57.565Z,96.70
2022-08-08T10:29:58.579Z,96.70
2022-08-08T10:32:39.031Z,96.70
2022-08-08T10:35:20.576Z,96.70
2022-08-08T10:38:08.192Z,96.70
2022-08-08T10:40:39.595Z,96.70
2022-08-08T10:43:10.966Z,96.70
2022-08-08T10:45:57.043Z,96.40
2022-08-08T10:48:56.071Z,95.00
2022-08-08T10:51:24.422Z,95.30
2022-08-08T10:54:02.227Z,94.30
2022-08-08T10:56:35.592Z,93.40
2022-08-08T10:59:09.967Z,92.30
2022-08-08T11:01:42.281Z,91.60
2022-08-08T11:04:14.717Z,90.70
2022-08-08T11:06:47.415Z,88.90
2022-08-08T11:09:21.441Z,89.20
2022-08-08T11:12:06.187Z,89.00
2022-08-08T11:14:53.272Z,88.90
2022-08-08T11:17:58.525Z,88.70
2022-08-08T11:20:18.188Z,88.60
2022-08-08T11:22:52.674Z,88.80
2022-08-08T11:25:43.613Z,88.80
2022-08-08T11:28:18.679Z,89.80
2022-08-08T11:30:52.769Z,89.60
2022-08-08T11:34:01.858Z,88.80
2022-08-08T11:36:15.897Z,88.30
2022-08-08T11:38:55.153Z,89.00
2022-08-08T11:41:32.274Z,89.20
2022-08-08T11:44:03.129Z,87.60
2022-08-08T11:46:35.173Z,88.10
2022-08-08T11:49:09.858Z,88.20
2022-08-08T11:51:50.783Z,86.90
2022-08-08T11:54:33.894Z,86.50
2022-08-08T11:57:23.734Z,86.10
2022-08-08T12:00:01.940Z,86.50
2022-08-08T12:02:51.371Z,86.40
2022-08-08T12:05:33.512Z,86.40
2022-08-08T12:08:02.809Z,86.00
2022-08-08T12:10:33.850Z,85.60
2022-08-08T12:13:06.311Z,85.50
2022-08-08T12:15:42.532Z,84.40
2022-08-08T12:18:21.350Z,84.70
2022-08-08T12:20:54.318Z,83.90
2022-08-08T12:23:43.798Z,84.00
2022-08-08T12:26:28.227Z,84.20
2022-08-08T12:29:25.879Z,84.40
2022-08-08T12:32:17.202Z,84.90
2022-08-08T12:35:13.474Z,84.90
2022-08-08T12:38:02.272Z,83.90
2022-08-08T12:40:54.482Z,82.70
2022-08-08T12:43:32.945Z,83.20
2022-08-08T12:46:19.405Z,82.60
2022-08-08T12:51:50.111Z,82.40
2022-08-08T12:54:29.824Z,82.00
2022-08-08T12:57:12.776Z,82.20
2022-08-08T13:00:05.851Z,82.40
2022-08-08T13:02:51.212Z,83.20
2022-08-08T13:05:26.520Z,82.60
2022-08-08T13:08:18.804Z,82.40
2022-08-08T13:10:56.625Z,81.80
2022-08-08T13:13:35.470Z,81.60
2022-08-08T13:16:19.942Z,82.90
2022-08-08T13:18:58.327Z,81.80
2022-08-08T13:21:36.464Z,82.20
2022-08-08T13:24:38.657Z,80.80
2022-08-08T13:27:12.475Z,80.60
2022-08-08T13:29:50.747Z,80.10
2022-08-08T13:32:20.970Z,80.20
2022-08-08T13:34:55.037Z,80.30
2022-08-08T13:37:28.310Z,81.40
2022-08-08T13:40:27.535Z,81.90
2022-08-08T13:42:57.755Z,82.10
2022-08-08T13:45:27.403Z,83.70
2022-08-08T13:48:00.619Z,83.70
2022-08-08T13:50:44.053Z,83.60
2022-08-08T13:53:34.067Z,84.80
2022-08-08T13:56:11.523Z,85.80
2022-08-08T13:58:57.572Z,85.80
2022-08-08T14:01:33.054Z,85.00
2022-08-08T14:04:23.154Z,85.30
2022-08-08T14:07:04.629Z,86.00
2022-08-08T14:10:04.506Z,87.10
2022-08-08T14:12:28.031Z,86.80
2022-08-08T14:14:57.111Z,87.50
2022-08-08T14:17:58.105Z,87.50
2022-08-08T14:20:55.445Z,88.70
2022-08-08T14:23:21.175Z,88.40
2022-08-08T14:26:10.587Z,88.30
2022-08-08T14:28:40.306Z,89.00
2022-08-08T14:31:10.401Z,88.90
2022-08-08T14:33:39.617Z,89.10
2022-08-08T14:36:14.428Z,89.30
2022-08-08T14:38:52.562Z,89.50
2022-08-08T14:41:53.416Z,89.00
2022-08-08T14:44:19.662Z,89.70
2022-08-08T14:47:00.403Z,87.60
2022-08-08T14:49:37.761Z,88.80
2022-08-08T14:52:25.877Z,89.00
2022-08-08T14:54:56.145Z,89.50
2022-08-08T14:58:03.234Z,89.10
2022-08-08T15:00:14.915Z,89.40
2022-08-08T15:02:58.885Z,89.70
2022-08-08T15:05:52.745Z,89.20
2022-08-08T15:08:35.084Z,88.30
2022-08-08T15:11:11.825Z,87.40
2022-08-08T15:14:00.828Z,87.10
2022-08-08T15:16:34.718Z,87.30
2022-08-08T15:19:04.660Z,87.00
2022-08-08T15:21:33.421Z,86.70
2022-08-08T15:24:12.719Z,87.60
2022-08-08T15:26:52.925Z,88.40
2022-08-08T15:29:24.518Z,88.80
2022-08-08T15:32:19.595Z,89.30
2022-08-08T15:34:43.540Z,89.70
2022-08-08T15:37:13.521Z,89.20
2022-08-08T15:39:42.187Z,87.80
2022-08-08T15:42:17.800Z,85.60
2022-08-08T15:45:03.604Z,83.80
2022-08-08T15:47:32.473Z,83.00
2022-08-08T15:50:03.023Z,81.40
2022-08-08T15:52:33.126Z,80.20
2022-08-08T15:55:03.770Z,78.70
2022-08-08T15:57:35.698Z,78.70
2022-08-08T16:00:26.093Z,78.50
2022-08-08T16:02:59.224Z,78.20
2022-08-08T16:05:35.577Z,77.10
2022-08-08T16:08:13.885Z,76.80
2022-08-08T16:13:14.476Z,76.70
2022-08-08T16:13:43.682Z,75.70
2022-08-08T16:16:17.243Z,74.60
2022-08-08T16:18:53.451Z,75.50
2022-08-08T16:21:28.104Z,75.70
2022-08-08T16:23:58.827Z,75.00
2022-08-08T16:26:33.711Z,75.30
2022-08-08T16:29:10.486Z,75.00
2022-08-08T16:31:48.339Z,74.70
2022-08-08T16:34:21.160Z,75.50
2022-08-08T16:36:50.998Z,76.40
2022-08-08T16:39:59.635Z,75.10
2022-08-08T16:42:17.680Z,74.30
2022-08-08T16:46:36.126Z,73.10
2022-08-08T16:48:36.882Z,73.50
2022-08-08T16:51:08.311Z,73.60
2022-08-08T16:55:01.405Z,73.50
2022-08-08T16:56:25.414Z,73.80
2022-08-08T16:58:56.405Z,73.70
2022-08-08T17:01:25.963Z,73.50
2022-08-08T17:04:05.134Z,77.70
2022-08-08T17:06:43.536Z,80.90
2022-08-08T17:09:14.609Z,81.80
2022-08-08T17:11:48.532Z,82.30
2022-08-08T17:14:19.457Z,82.80
2022-08-08T17:16:57.823Z,83.50
2022-08-08T17:19:29.734Z,84.00
2022-08-08T17:22:01.477Z,84.10
2022-08-08T17:24:31.204Z,84.40
2022-08-08T17:27:29.004Z,84.90
2022-08-08T17:30:41.760Z,83.10
2022-08-08T17:34:35.305Z,85.00
2022-08-08T17:36:21.864Z,85.50
2022-08-08T17:39:05.443Z,85.80
2022-08-08T17:41:58.125Z,86.20
2022-08-08T17:44:28.405Z,86.50
2022-08-08T17:46:58.106Z,86.80
2022-08-08T17:49:28.544Z,87.30
2022-08-08T17:51:58.964Z,87.60
2022-08-08T17:54:28.984Z,87.80
2022-08-08T17:56:58.065Z,88.10
2022-08-08T17:59:30.363Z,88.40
2022-08-08T18:02:11.349Z,88.50
2022-08-08T18:04:49.462Z,88.90
2022-08-08T18:08:15.314Z,89.00
2022-08-08T18:10:10.314Z,89.20
2022-08-08T18:12:39.204Z,89.50
2022-08-08T18:15:12.579Z,89.80
2022-08-08T18:18:05.407Z,90.20
2022-08-08T18:20:44.324Z,90.50
2022-08-08T18:23:19.799Z,90.60
2022-08-08T18:25:48.376Z,90.90
2022-08-08T18:28:16.865Z,91.10
2022-08-08T18:30:52.104Z,91.30
2022-08-08T18:34:10.782Z,91.50
2022-08-08T18:36:22.974Z,91.60
2022-08-08T18:38:55.375Z,91.50
2022-08-08T18:41:51.243Z,91.10
2022-08-08T18:44:14.344Z,91.10
2022-08-08T18:46:54.395Z,90.30
2022-08-08T18:49:32.383Z,90.40
2022-08-08T18:52:18.348Z,90.60
2022-08-08T18:54:59.824Z,90.50
2022-08-08T18:57:31.887Z,91.50
2022-08-08T19:00:13.951Z,92.10
2022-08-08T19:02:48.624Z,93.00
2022-08-08T19:05:31.935Z,93.40
2022-08-08T19:08:25.367Z,93.90
2022-08-08T19:11:01.550Z,94.10
2022-08-08T19:13:53.730Z,94.40
2022-08-08T19:16:23.635Z,94.60
2022-08-08T19:19:02.505Z,93.80
2022-08-08T19:21:33.429Z,93.70
2022-08-08T19:24:34.181Z,94.00
2022-08-08T19:27:10.739Z,93.80
2022-08-08T19:29:42.521Z,93.40
2022-08-08T19:32:21.781Z,93.00
2022-08-08T19:34:51.935Z,93.20
2022-08-08T19:37:43.287Z,93.50
2022-08-08T19:40:14.608Z,93.70
2022-08-08T19:42:48.625Z,93.70
2022-08-08T19:45:57.339Z,93.90
2022-08-08T19:48:28.172Z,93.90
2022-08-08T19:50:56.159Z,93.80
2022-08-08T19:53:51.865Z,94.00
2022-08-08T19:56:14.026Z,94.50
2022-08-08T19:58:51.808Z,94.10
2022-08-08T20:01:31.758Z,94.20
2022-08-08T20:04:10.734Z,94.50
2022-08-08T20:06:40.246Z,94.90
2022-08-08T20:09:09.297Z,95.30
2022-08-08T20:11:43.257Z,95.50
2022-08-08T20:14:34.352Z,95.60
2022-08-08T20:17:02.978Z,96.00
2022-08-08T20:19:34.441Z,95.60
2022-08-08T20:22:20.790Z,95.70
2022-08-08T20:24:55.235Z,95.30
2022-08-08T20:27:23.965Z,95.60
2022-08-08T20:29:55.683Z,96.30
2022-08-08T20:32:31.938Z,95.50
2022-08-08T20:35:02.587Z,95.80
2022-08-08T20:37:46.932Z,95.90
2022-08-08T20:40:33.220Z,96.40
2022-08-08T20:43:13.218Z,96.40
2022-08-08T20:45:58.017Z,96.40
2022-08-08T20:48:32.508Z,96.70
2022-08-08T20:51:06.097Z,96.70
2022-08-08T20:54:00.591Z,96.70
2022-08-08T20:56:35.415Z,96.70
2022-08-08T20:59:08.674Z,96.70
2022-08-08T21:02:06.914Z,96.70
2022-08-08T21:04:28.158Z,96.70
2022-08-08T21:06:56.818Z,96.70
2022-08-08T21:09:31.668Z,96.70
2022-08-08T21:12:14.168Z,96.70
2022-08-08T21:14:49.063Z,96.70
2022-08-08T21:17:28.964Z,96.70
2022-08-08T21:20:03.731Z,96.70
2022-08-08T21:22:32.799Z,96.70
2022-08-08T21:25:02.160Z,96.70
2022-08-08T21:28:05.973Z,96.70
2022-08-08T21:30:22.252Z,96.70
2022-08-08T21:32:56.048Z,96.70
2022-08-08T21:36:19.230Z,96.70
2022-08-08T21:38:18.001Z,96.70
2022-08-08T21:40:56.529Z,96.70
2022-08-08T21:43:33.691Z,96.70
2022-08-08T21:48:03.730Z,96.70
2022-08-08T21:48:55.527Z,96.70
2022-08-08T21:54:18.597Z,96.70
2022-08-08T21:54:33.127Z,96.70
2022-08-08T21:57:05.447Z,96.70
2022-08-08T22:00:02.894Z,96.70
2022-08-08T22:02:24.155Z,96.70
2022-08-08T22:04:58.954Z,96.70
2022-08-08T22:07:39.828Z,96.70
2022-08-08T22:10:17.927Z,96.70
2022-08-08T22:13:17.925Z,96.70
2022-08-08T22:15:59.342Z,96.70
2022-08-08T22:18:33.348Z,96.70
2022-08-08T22:21:13.719Z,96.70
2022-08-08T22:23:50.526Z,96.70
2022-08-08T22:26:27.730Z,96.70
2022-08-08T22:29:04.190Z,96.70
2022-08-08T22:31:58.939Z,96.70
2022-08-08T22:34:32.536Z,96.70
2022-08-08T22:37:03.410Z,96.70
2022-08-08T22:39:45.827Z,96.70
2022-08-08T22:42:14.645Z,96.70
2022-08-08T22:44:56.522Z,96.70
2022-08-08T22:47:34.271Z,96.70
2022-08-08T22:50:24.974Z,96.70
2022-08-08T22:53:22.415Z,96.70
2022-08-08T22:55:58.589Z,96.70
2022-08-08T22:58:33.023Z,96.70
2022-08-08T23:01:26.861Z,96.70
2022-08-08T23:03:53.671Z,96.70
2022-08-08T23:06:24.419Z,96.70
2022-08-08T23:08:58.733Z,96.70
2022-08-08T23:11:31.451Z,96.70
2022-08-08T23:14:18.308Z,96.70
2022-08-08T23:16:57.922Z,96.70
2022-08-08T23:19:30.993Z,96.70
2022-08-08T23:22:04.378Z,96.70
2022-08-08T23:24:36.859Z,96.70
2022-08-08T23:27:10.150Z,96.70
2022-08-08T23:29:39.459Z,96.70
2022-08-08T23:32:11.409Z,96.70
2022-08-08T23:34:49.711Z,96.70
2022-08-08T23:37:54.063Z,96.70
2022-08-08T23:40:21.904Z,96.70
2022-08-08T23:42:51.537Z,96.70
2022-08-08T23:49:02.732Z,96.70
2022-08-08T23:49:03.597Z,96.70
2022-08-08T23:50:59.597Z,96.70
2022-08-08T23:53:55.982Z,96.70
2022-08-08T23:56:24.049Z,96.70
2022-08-08T23:59:00.529Z,96.70
